createdAt,value
2022-12-25T00:00:24.146Z,85.93
2022-12-25T00:00:56.396Z,86.00
2022-12-25T00:01:28.351Z,86.03
2022-12-25T00:02:00.374Z,86.11
2022-12-25T00:02:32.604Z,85.77
2022-12-25T00:03:04.725Z,86.08
2022-12-25T00:03:37.333Z,85.76
2022-12-25T00:04:09.395Z,85.48
2022-12-25T00:04:41.841Z,85.26
2022-12-25T00:05:13.691Z,85.17
2022-12-25T00:05:45.554Z,85.14
2022-12-25T00:06:18.376Z,85.33
2022-12-25T00:06:50.326Z,85.70
2022-12-25T00:07:22.184Z,85.95
2022-12-25T00:07:54.043Z,85.99
2022-12-25T00:08:25.933Z,85.98
2022-12-25T00:08:57.775Z,85.97
2022-12-25T00:09:30.065Z,85.45
2022-12-25T00:10:02.020Z,85.56
2022-12-25T00:10:34.079Z,85.92
2022-12-25T00:11:09.261Z,85.92
2022-12-25T00:11:41.391Z,85.80
2022-12-25T00:12:13.251Z,85.83
2022-12-25T00:12:45.094Z,85.80
2022-12-25T00:13:16.918Z,86.15
2022-12-25T00:13:49.399Z,86.28
2022-12-25T00:14:21.262Z,86.43
2022-12-25T00:14:53.366Z,86.44
2022-12-25T00:15:25.285Z,86.31
2022-12-25T00:15:57.215Z,86.53
2022-12-25T00:16:29.369Z,86.57
2022-12-25T00:17:01.551Z,86.35
2022-12-25T00:17:33.576Z,86.09
2022-12-25T00:18:05.475Z,85.87
2022-12-25T00:18:37.388Z,85.80
2022-12-25T00:19:09.273Z,85.99
2022-12-25T00:19:41.230Z,86.14
2022-12-25T00:20:13.170Z,86.20
2022-12-25T00:20:45.054Z,86.57
2022-12-25T00:21:18.259Z,86.67
2022-12-25T00:21:50.094Z,86.49
2022-12-25T00:22:22.323Z,86.51
2022-12-25T00:22:54.649Z,86.75
2022-12-25T00:23:27.023Z,86.87
2022-12-25T00:23:59.279Z,86.70
2022-12-25T00:24:31.143Z,86.75
2022-12-25T00:25:03.257Z,86.83
2022-12-25T00:25:35.157Z,86.88
2022-12-25T00:26:09.220Z,86.88
2022-12-25T00:26:41.215Z,87.04
2022-12-25T00:27:13.073Z,86.76
2022-12-25T00:27:45.372Z,86.36
2022-12-25T00:28:17.225Z,86.01
2022-12-25T00:28:53.281Z,86.16
2022-12-25T00:29:25.229Z,86.71
2022-12-25T00:29:57.335Z,86.48
2022-12-25T00:30:29.171Z,85.96
2022-12-25T00:31:04.805Z,85.92
2022-12-25T00:31:36.704Z,85.97
2022-12-25T00:32:08.682Z,86.03
2022-12-25T00:32:42.101Z,86.32
2022-12-25T00:33:14.300Z,86.27
2022-12-25T00:33:48.172Z,86.23
2022-12-25T00:34:20.056Z,86.34
2022-12-25T00:34:51.967Z,86.43
2022-12-25T00:35:23.802Z,86.58
2022-12-25T00:36:00.373Z,86.59
2022-12-25T00:36:37.749Z,86.87
2022-12-25T00:37:13.141Z,87.11
2022-12-25T00:37:44.995Z,87.20
2022-12-25T00:38:17.132Z,87.03
2022-12-25T00:38:49.222Z,86.97
2022-12-25T00:39:21.218Z,86.87
2022-12-25T00:39:53.169Z,87.03
2022-12-25T00:40:25.010Z,87.15
2022-12-25T00:40:56.881Z,86.67
2022-12-25T00:41:47.475Z,86.92
2022-12-25T00:42:19.345Z,87.25
2022-12-25T00:42:51.517Z,87.15
2022-12-25T00:43:24.095Z,87.14
2022-12-25T00:43:55.930Z,87.46
2022-12-25T00:44:27.738Z,87.67
2022-12-25T00:45:01.514Z,87.56
2022-12-25T00:45:33.828Z,88.00
2022-12-25T00:46:07.298Z,88.25
2022-12-25T00:46:40.308Z,88.30
2022-12-25T00:47:12.278Z,87.97
2022-12-25T00:47:44.229Z,88.05
2022-12-25T00:48:16.060Z,88.41
2022-12-25T00:48:48.545Z,87.97
2022-12-25T00:49:22.874Z,88.10
2022-12-25T00:49:55.361Z,88.23
2022-12-25T00:50:27.197Z,88.29
2022-12-25T00:51:01.872Z,88.00
2022-12-25T00:51:33.895Z,87.56
2022-12-25T00:52:06.093Z,87.79
2022-12-25T00:52:37.977Z,88.64
2022-12-25T00:53:09.813Z,88.34
2022-12-25T00:53:41.702Z,88.51
2022-12-25T00:54:13.898Z,89.24
2022-12-25T00:54:45.769Z,89.93
2022-12-25T00:55:17.669Z,90.50
2022-12-25T00:55:53.369Z,90.40
2022-12-25T00:56:25.756Z,90.18
2022-12-25T00:56:57.755Z,89.91
2022-12-25T00:57:29.609Z,89.32
2022-12-25T00:58:01.437Z,89.13
2022-12-25T00:58:34.518Z,89.14
2022-12-25T00:59:06.470Z,89.20
2022-12-25T00:59:38.652Z,89.10
2022-12-25T01:00:10.974Z,89.16
2022-12-25T01:00:42.837Z,88.98
2022-12-25T01:01:14.898Z,88.64
2022-12-25T01:01:47.127Z,88.44
2022-12-25T01:02:25.798Z,88.27
2022-12-25T01:02:57.995Z,88.19
2022-12-25T01:03:30.230Z,88.17
2022-12-25T01:04:02.248Z,88.14
2022-12-25T01:04:34.533Z,88.12
2022-12-25T01:05:07.526Z,88.25
2022-12-25T01:05:39.354Z,88.33
2022-12-25T01:06:12.977Z,88.21
2022-12-25T01:06:44.844Z,88.55
2022-12-25T01:07:17.762Z,88.45
2022-12-25T01:07:49.584Z,88.28
2022-12-25T01:08:21.559Z,88.03
2022-12-25T01:09:12.032Z,87.95
2022-12-25T01:10:06.024Z,88.00
2022-12-25T01:10:38.194Z,88.24
2022-12-25T01:11:10.030Z,87.71
2022-12-25T01:11:41.916Z,87.63
2022-12-25T01:12:13.756Z,87.33
2022-12-25T01:12:45.589Z,86.83
2022-12-25T01:13:17.395Z,86.81
2022-12-25T01:13:49.236Z,87.26
2022-12-25T01:14:21.086Z,87.60
2022-12-25T01:14:52.979Z,87.42
2022-12-25T01:15:24.924Z,87.28
2022-12-25T01:15:57.546Z,87.05
2022-12-25T01:16:29.993Z,87.38
2022-12-25T01:17:01.833Z,87.95
2022-12-25T01:17:33.912Z,87.98
2022-12-25T01:18:07.915Z,87.61
2022-12-25T01:18:40.555Z,87.28
2022-12-25T01:19:12.456Z,87.15
2022-12-25T01:19:44.335Z,87.19
2022-12-25T01:20:17.869Z,87.12
2022-12-25T01:20:49.879Z,87.72
2022-12-25T01:21:22.579Z,88.30
2022-12-25T01:21:54.445Z,88.31
2022-12-25T01:22:26.444Z,88.07
2022-12-25T01:22:58.286Z,88.00
2022-12-25T01:23:30.104Z,88.48
2022-12-25T01:24:02.270Z,89.04
2022-12-25T01:24:34.109Z,89.33
2022-12-25T01:25:06.676Z,89.09
2022-12-25T01:25:38.550Z,88.72
2022-12-25T01:26:12.120Z,88.55
2022-12-25T01:26:44.297Z,88.32
2022-12-25T01:27:16.978Z,88.51
2022-12-25T01:27:48.899Z,89.08
2022-12-25T01:28:20.748Z,89.60
2022-12-25T01:28:52.699Z,89.62
2022-12-25T01:29:24.568Z,89.53
2022-12-25T01:29:56.393Z,89.28
2022-12-25T01:30:28.401Z,88.87
2022-12-25T01:31:00.253Z,88.56
2022-12-25T01:31:32.483Z,89.02
2022-12-25T01:32:05.871Z,89.09
2022-12-25T01:32:37.846Z,88.91
2022-12-25T01:33:10.092Z,88.65
2022-12-25T01:33:43.435Z,88.69
2022-12-25T01:34:15.327Z,89.10
2022-12-25T01:34:52.085Z,89.24
2022-12-25T01:35:27.741Z,89.32
2022-12-25T01:35:59.718Z,89.21
2022-12-25T01:36:31.577Z,89.06
2022-12-25T01:37:03.429Z,89.37
2022-12-25T01:37:35.673Z,89.71
2022-12-25T01:38:07.535Z,89.48
2022-12-25T01:38:39.397Z,89.86
2022-12-25T01:39:11.219Z,90.21
2022-12-25T01:39:43.090Z,90.25
2022-12-25T01:40:14.974Z,89.87
2022-12-25T01:40:46.943Z,89.51
2022-12-25T01:41:20.832Z,89.50
2022-12-25T01:41:52.814Z,89.29
2022-12-25T01:42:24.758Z,89.36
2022-12-25T01:42:56.970Z,89.36
2022-12-25T01:43:32.786Z,89.32
2022-12-25T01:44:13.650Z,89.40
2022-12-25T01:44:45.426Z,89.42
2022-12-25T01:45:37.935Z,89.53
2022-12-25T01:46:09.868Z,89.64
2022-12-25T01:46:42.818Z,89.78
2022-12-25T01:47:17.138Z,89.70
2022-12-25T01:47:48.961Z,89.90
2022-12-25T01:48:25.005Z,89.77
2022-12-25T01:49:02.145Z,89.68
2022-12-25T01:49:37.959Z,89.65
2022-12-25T01:50:09.939Z,89.23
2022-12-25T01:50:46.272Z,88.87
2022-12-25T01:51:51.233Z,88.57
2022-12-25T01:52:25.325Z,88.27
2022-12-25T01:52:58.125Z,88.98
2022-12-25T01:53:30.318Z,88.95
2022-12-25T01:54:07.011Z,89.56
2022-12-25T01:54:50.584Z,89.61
2022-12-25T01:55:23.376Z,89.58
2022-12-25T01:56:01.938Z,89.09
2022-12-25T01:56:37.207Z,88.71
2022-12-25T01:57:17.299Z,88.71
2022-12-25T01:57:49.629Z,89.03
2022-12-25T01:58:21.560Z,88.93
2022-12-25T01:58:55.946Z,89.44
2022-12-25T01:59:30.315Z,89.30
2022-12-25T02:00:02.710Z,88.89
2022-12-25T02:00:36.672Z,89.49
2022-12-25T02:01:09.060Z,90.20
2022-12-25T02:01:41.128Z,90.22
2022-12-25T02:02:13.296Z,89.75
2022-12-25T02:02:45.756Z,89.37
2022-12-25T02:03:18.464Z,89.07
2022-12-25T02:03:51.581Z,88.96
2022-12-25T02:04:39.176Z,89.44
2022-12-25T02:05:22.215Z,89.79
2022-12-25T02:05:54.872Z,89.66
2022-12-25T02:06:30.643Z,89.72
2022-12-25T02:07:02.482Z,89.39
2022-12-25T02:07:37.311Z,88.83
2022-12-25T02:08:14.449Z,88.51
2022-12-25T02:08:46.376Z,88.57
2022-12-25T02:09:19.145Z,88.81
2022-12-25T02:09:51.923Z,88.69
2022-12-25T02:10:23.982Z,89.07
2022-12-25T02:10:55.825Z,89.89
2022-12-25T02:11:46.585Z,90.36
2022-12-25T02:12:22.273Z,90.38
2022-12-25T02:12:54.146Z,90.57
2022-12-25T02:13:26.625Z,90.28
2022-12-25T02:13:59.678Z,90.05
2022-12-25T02:14:35.587Z,90.04
2022-12-25T02:15:14.221Z,90.54
2022-12-25T02:15:48.720Z,90.48
2022-12-25T02:16:26.314Z,90.18
2022-12-25T02:17:24.878Z,90.52
2022-12-25T02:18:12.826Z,90.68
2022-12-25T02:18:51.890Z,90.71
2022-12-25T02:19:33.271Z,90.06
2022-12-25T02:20:40.278Z,90.04
2022-12-25T02:21:27.032Z,90.46
2022-12-25T02:22:35.087Z,90.01
2022-12-25T02:23:28.212Z,90.02
2022-12-25T02:24:27.359Z,89.76
2022-12-25T02:25:11.046Z,89.40
2022-12-25T02:25:43.538Z,88.93
2022-12-25T02:26:58.356Z,89.22
2022-12-25T02:27:56.191Z,89.27
2022-12-25T02:28:30.367Z,89.22
2022-12-25T02:29:17.274Z,89.12
2022-12-25T02:30:05.412Z,89.17
2022-12-25T02:30:44.205Z,89.23
2022-12-25T02:31:34.088Z,89.28
2022-12-25T02:32:15.916Z,89.27
2022-12-25T02:33:26.186Z,89.00
2022-12-25T02:34:06.924Z,88.93
2022-12-25T02:34:44.548Z,88.96
2022-12-25T02:35:31.351Z,88.83
2022-12-25T02:36:10.477Z,88.12
2022-12-25T02:36:51.107Z,88.28
2022-12-25T02:37:29.422Z,88.49
2022-12-25T02:38:08.406Z,88.46
2022-12-25T02:39:04.846Z,88.22
2022-12-25T02:39:58.004Z,88.22
2022-12-25T02:40:38.509Z,88.91
2022-12-25T02:41:16.208Z,89.02
2022-12-25T02:41:53.924Z,88.95
2022-12-25T02:43:02.592Z,88.56
2022-12-25T02:43:59.764Z,88.09
2022-12-25T02:44:52.701Z,88.55
2022-12-25T02:45:52.772Z,89.06
2022-12-25T02:46:44.931Z,89.00
2022-12-25T02:47:36.315Z,88.51
2022-12-25T02:48:28.911Z,88.65
2022-12-25T02:49:23.995Z,88.65
2022-12-25T02:50:15.859Z,88.78
2022-12-25T02:51:07.130Z,88.75
2022-12-25T02:52:02.217Z,88.96
2022-12-25T02:53:12.982Z,88.87
2022-12-25T02:54:04.988Z,89.03
2022-12-25T02:54:59.240Z,88.95
2022-12-25T02:55:55.142Z,88.36
2022-12-25T02:56:48.243Z,88.60
2022-12-25T02:57:43.488Z,88.70
2022-12-25T02:58:39.690Z,89.03
2022-12-25T02:59:32.457Z,89.09
2022-12-25T03:00:25.019Z,89.03
2022-12-25T03:01:24.309Z,89.22
2022-12-25T03:02:15.299Z,89.07
2022-12-25T03:03:08.504Z,88.54
2022-12-25T03:04:01.254Z,88.02
2022-12-25T03:04:52.578Z,88.62
2022-12-25T03:05:45.715Z,88.90
2022-12-25T03:06:39.222Z,89.11
2022-12-25T03:07:16.265Z,89.13
2022-12-25T03:07:48.497Z,89.19
2022-12-25T03:08:29.775Z,89.01
2022-12-25T03:09:23.527Z,88.89
2022-12-25T03:10:20.265Z,89.41
2022-12-25T03:11:20.548Z,89.84
2022-12-25T03:12:02.424Z,88.98
2022-12-25T03:12:49.190Z,88.26
2022-12-25T03:13:27.623Z,88.78
2022-12-25T03:14:21.700Z,88.86
2022-12-25T03:15:11.998Z,88.42
2022-12-25T03:16:03.393Z,87.82
2022-12-25T03:16:54.002Z,88.06
2022-12-25T03:17:26.725Z,88.61
2022-12-25T03:18:03.378Z,88.66
2022-12-25T03:18:35.957Z,88.27
2022-12-25T03:19:27.112Z,87.90
2022-12-25T03:20:18.452Z,87.72
2022-12-25T03:21:10.386Z,88.43
2022-12-25T03:22:01.265Z,89.38
2022-12-25T03:22:51.618Z,89.09
2022-12-25T03:23:47.694Z,88.78
2022-12-25T03:24:38.384Z,88.36
2022-12-25T03:25:29.165Z,88.01
2022-12-25T03:26:19.594Z,88.01
2022-12-25T03:26:58.031Z,88.50
2022-12-25T03:27:33.542Z,88.43
2022-12-25T03:28:06.518Z,88.44
2022-12-25T03:28:38.351Z,88.39
2022-12-25T03:29:11.218Z,88.10
2022-12-25T03:30:02.025Z,88.11
2022-12-25T03:31:12.509Z,87.66
2022-12-25T03:31:58.508Z,88.23
2022-12-25T03:32:51.538Z,87.64
2022-12-25T03:33:46.100Z,87.02
2022-12-25T03:34:55.271Z,87.03
2022-12-25T03:35:34.054Z,87.09
2022-12-25T03:36:15.869Z,87.82
2022-12-25T03:37:00.756Z,87.86
2022-12-25T03:38:10.146Z,88.09
2022-12-25T03:38:50.860Z,88.12
2022-12-25T03:39:57.586Z,88.41
2022-12-25T03:40:48.080Z,87.21
2022-12-25T03:41:59.715Z,89.53
2022-12-25T03:42:58.156Z,88.71
2022-12-25T03:44:07.915Z,89.15
2022-12-25T03:45:22.356Z,88.13
2022-12-25T03:46:15.801Z,87.73
2022-12-25T03:47:13.033Z,87.51
2022-12-25T03:48:08.058Z,88.44
2022-12-25T03:49:03.117Z,89.36
2022-12-25T03:50:05.649Z,88.79
2022-12-25T03:51:11.506Z,88.82
2022-12-25T03:52:03.875Z,88.96
2022-12-25T03:52:56.853Z,88.32
2022-12-25T03:53:52.309Z,87.90
2022-12-25T03:54:47.789Z,86.56
2022-12-25T03:55:39.185Z,87.04
2022-12-25T03:56:31.115Z,87.04
2022-12-25T03:57:21.484Z,87.45
2022-12-25T03:58:12.026Z,87.42
2022-12-25T03:59:11.283Z,87.36
2022-12-25T04:00:02.285Z,87.81
2022-12-25T04:01:00.007Z,87.54
2022-12-25T04:01:50.951Z,87.72
2022-12-25T04:02:41.756Z,87.19
2022-12-25T04:03:32.733Z,87.39
2022-12-25T04:04:23.284Z,87.15
2022-12-25T04:05:13.966Z,87.50
2022-12-25T04:06:04.254Z,86.99
2022-12-25T04:06:55.654Z,86.46
2022-12-25T04:07:46.127Z,86.24
2022-12-25T04:08:36.593Z,86.48
2022-12-25T04:09:26.969Z,87.41
2022-12-25T04:10:17.412Z,87.53
2022-12-25T04:11:07.859Z,87.27
2022-12-25T04:12:02.526Z,87.26
2022-12-25T04:12:53.304Z,87.59
2022-12-25T04:13:43.720Z,88.00
2022-12-25T04:14:33.987Z,87.86
2022-12-25T04:15:24.983Z,87.78
2022-12-25T04:16:15.455Z,87.74
2022-12-25T04:17:06.434Z,87.65
2022-12-25T04:17:56.906Z,86.93
2022-12-25T04:18:47.368Z,86.59
2022-12-25T04:19:38.008Z,86.56
2022-12-25T04:20:28.780Z,87.11
2022-12-25T04:21:19.364Z,87.62
2022-12-25T04:22:10.206Z,88.11
2022-12-25T04:23:00.537Z,87.58
2022-12-25T04:23:51.018Z,87.11
2022-12-25T04:24:41.453Z,86.94
2022-12-25T04:25:32.065Z,86.91
2022-12-25T04:26:22.365Z,87.07
2022-12-25T04:27:13.456Z,86.68
2022-12-25T04:28:03.916Z,86.07
2022-12-25T04:28:54.565Z,86.21
2022-12-25T04:29:44.897Z,86.32
2022-12-25T04:30:35.254Z,86.26
2022-12-25T04:31:25.902Z,86.48
2022-12-25T04:32:16.913Z,86.28
2022-12-25T04:33:07.394Z,86.01
2022-12-25T04:33:57.715Z,85.56
2022-12-25T04:34:48.376Z,86.40
2022-12-25T04:35:55.589Z,86.53
2022-12-25T04:36:27.423Z,86.31
2022-12-25T04:36:59.549Z,85.79
2022-12-25T04:37:31.363Z,85.97
2022-12-25T04:38:03.208Z,86.48
2022-12-25T04:38:36.553Z,86.82
2022-12-25T04:39:09.693Z,87.06
2022-12-25T04:39:41.528Z,87.45
2022-12-25T04:40:13.506Z,87.07
2022-12-25T04:40:45.354Z,86.66
2022-12-25T04:41:17.211Z,86.20
2022-12-25T04:41:49.062Z,85.91
2022-12-25T04:42:21.271Z,86.36
2022-12-25T04:42:53.520Z,86.81
2022-12-25T04:43:25.621Z,87.13
2022-12-25T04:43:57.452Z,87.46
2022-12-25T04:44:29.267Z,87.04
2022-12-25T04:45:01.123Z,86.56
2022-12-25T04:45:32.972Z,86.36
2022-12-25T04:46:06.054Z,86.46
2022-12-25T04:46:37.960Z,86.34
2022-12-25T04:47:11.730Z,86.27
2022-12-25T04:47:44.257Z,86.14
2022-12-25T04:48:16.138Z,86.23
2022-12-25T04:48:47.998Z,86.70
2022-12-25T04:49:19.962Z,86.83
2022-12-25T04:49:51.809Z,86.66
2022-12-25T04:50:23.665Z,86.61
2022-12-25T04:50:56.327Z,86.42
2022-12-25T04:51:28.176Z,86.05
2022-12-25T04:51:59.987Z,85.64
2022-12-25T04:52:37.018Z,85.49
2022-12-25T04:53:09.187Z,85.30
2022-12-25T04:53:41.336Z,85.38
2022-12-25T04:54:13.199Z,86.00
2022-12-25T04:54:45.085Z,85.98
2022-12-25T04:55:16.961Z,85.87
2022-12-25T04:55:49.153Z,86.33
2022-12-25T04:56:21.717Z,85.83
2022-12-25T04:56:53.629Z,86.42
2022-12-25T04:57:25.453Z,86.63
2022-12-25T04:57:57.288Z,86.44
2022-12-25T04:58:31.076Z,86.21
2022-12-25T04:59:02.890Z,86.27
2022-12-25T04:59:34.731Z,86.25
2022-12-25T05:00:07.269Z,86.56
2022-12-25T05:00:39.449Z,86.08
2022-12-25T05:01:12.336Z,85.70
2022-12-25T05:01:44.282Z,85.78
2022-12-25T05:02:16.458Z,86.03
2022-12-25T05:02:48.566Z,86.80
2022-12-25T05:03:20.482Z,86.90
2022-12-25T05:03:52.817Z,86.63
2022-12-25T05:04:24.812Z,86.72
2022-12-25T05:04:57.466Z,86.68
2022-12-25T05:05:29.418Z,86.48
2022-12-25T05:06:02.319Z,86.39
2022-12-25T05:06:34.152Z,86.92
2022-12-25T05:07:05.999Z,87.08
2022-12-25T05:07:37.911Z,86.93
2022-12-25T05:08:09.833Z,86.49
2022-12-25T05:08:41.947Z,86.16
2022-12-25T05:09:14.081Z,85.98
2022-12-25T05:09:45.917Z,85.63
2022-12-25T05:10:17.957Z,85.34
2022-12-25T05:10:50.127Z,85.45
2022-12-25T05:11:21.994Z,85.79
2022-12-25T05:11:53.830Z,86.01
2022-12-25T05:12:25.674Z,86.14
2022-12-25T05:12:57.578Z,86.05
2022-12-25T05:13:29.466Z,85.98
2022-12-25T05:14:01.434Z,85.83
2022-12-25T05:14:33.783Z,85.80
2022-12-25T05:15:06.002Z,85.67
2022-12-25T05:15:42.225Z,85.49
2022-12-25T05:16:17.130Z,85.38
2022-12-25T05:16:49.067Z,86.22
2022-12-25T05:17:20.947Z,86.39
2022-12-25T05:17:52.775Z,85.65
2022-12-25T05:18:24.873Z,85.17
2022-12-25T05:18:57.420Z,85.03
2022-12-25T05:19:29.328Z,84.78
2022-12-25T05:20:02.184Z,84.54
2022-12-25T05:20:39.680Z,84.34
2022-12-25T05:21:12.461Z,84.24
2022-12-25T05:21:44.417Z,84.91
2022-12-25T05:22:16.237Z,85.11
2022-12-25T05:22:48.089Z,85.59
2022-12-25T05:23:20.185Z,85.51
2022-12-25T05:23:54.903Z,85.09
2022-12-25T05:24:27.841Z,84.87
2022-12-25T05:24:59.699Z,85.06
2022-12-25T05:25:31.939Z,86.04
2022-12-25T05:26:07.822Z,86.60
2022-12-25T05:26:39.690Z,87.03
2022-12-25T05:27:11.567Z,87.33
2022-12-25T05:27:46.524Z,87.13
2022-12-25T05:28:22.108Z,86.86
2022-12-25T05:28:54.916Z,86.71
2022-12-25T05:29:26.894Z,86.37
2022-12-25T05:29:58.762Z,86.25
2022-12-25T05:30:30.601Z,86.40
2022-12-25T05:31:03.154Z,86.15
2022-12-25T05:31:35.119Z,86.00
2022-12-25T05:32:07.045Z,86.01
2022-12-25T05:32:38.948Z,85.93
2022-12-25T05:33:10.867Z,85.66
2022-12-25T05:33:42.783Z,85.83
2022-12-25T05:34:14.631Z,85.36
2022-12-25T05:34:46.853Z,84.63
2022-12-25T05:35:18.697Z,85.30
2022-12-25T05:35:50.962Z,85.51
2022-12-25T05:36:23.126Z,85.35
2022-12-25T05:36:56.471Z,85.34
2022-12-25T05:37:28.394Z,85.24
2022-12-25T05:38:00.250Z,85.42
2022-12-25T05:38:32.596Z,85.64
2022-12-25T05:39:04.473Z,85.59
2022-12-25T05:39:36.475Z,85.52
2022-12-25T05:40:09.058Z,86.02
2022-12-25T05:40:41.079Z,86.33
2022-12-25T05:41:12.980Z,86.26
2022-12-25T05:41:45.242Z,86.08
2022-12-25T05:42:17.145Z,85.50
2022-12-25T05:42:49.070Z,89.88
2022-12-25T05:43:20.949Z,88.66
2022-12-25T05:43:52.791Z,89.21
2022-12-25T05:44:24.570Z,88.37
2022-12-25T05:44:56.405Z,87.65
2022-12-25T05:45:28.261Z,86.27
2022-12-25T05:46:06.181Z,86.44
2022-12-25T05:46:38.115Z,86.57
2022-12-25T05:47:10.330Z,86.25
2022-12-25T05:47:42.195Z,85.74
2022-12-25T05:48:14.042Z,85.37
2022-12-25T05:48:45.934Z,85.49
2022-12-25T05:49:17.810Z,85.75
2022-12-25T05:49:49.620Z,85.33
2022-12-25T05:50:21.459Z,89.98
2022-12-25T05:50:53.257Z,86.95
2022-12-25T05:51:26.153Z,88.10
2022-12-25T05:51:58.027Z,87.04
2022-12-25T05:52:33.859Z,86.24
2022-12-25T05:53:08.580Z,85.96
2022-12-25T05:53:42.518Z,86.08
2022-12-25T05:54:14.373Z,86.10
2022-12-25T05:54:46.530Z,85.58
2022-12-25T05:55:18.368Z,85.30
2022-12-25T05:55:50.342Z,85.31
2022-12-25T05:56:22.249Z,85.38
2022-12-25T05:56:54.109Z,85.73
2022-12-25T05:57:28.639Z,85.81
2022-12-25T05:58:01.049Z,85.99
2022-12-25T05:58:34.196Z,85.62
2022-12-25T05:59:06.117Z,85.71
2022-12-25T05:59:37.990Z,85.91
2022-12-25T06:00:10.829Z,86.53
2022-12-25T06:00:44.579Z,86.50
2022-12-25T06:01:23.776Z,86.36
2022-12-25T06:01:55.668Z,86.57
2022-12-25T06:02:27.770Z,86.44
2022-12-25T06:03:00.196Z,85.35
2022-12-25T06:03:32.200Z,85.86
2022-12-25T06:04:10.190Z,85.45
2022-12-25T06:04:44.187Z,85.11
2022-12-25T06:05:16.531Z,85.54
2022-12-25T06:05:50.902Z,85.74
2022-12-25T06:06:29.663Z,85.93
2022-12-25T06:07:01.787Z,86.13
2022-12-25T06:07:34.495Z,86.20
2022-12-25T06:08:06.501Z,86.23
2022-12-25T06:08:38.688Z,86.01
2022-12-25T06:09:16.956Z,85.87
2022-12-25T06:09:49.280Z,85.92
2022-12-25T06:10:21.906Z,86.03
2022-12-25T06:10:54.250Z,86.09
2022-12-25T06:11:28.213Z,86.59
2022-12-25T06:12:00.464Z,86.74
2022-12-25T06:12:35.135Z,87.19
2022-12-25T06:13:07.330Z,87.62
2022-12-25T06:13:39.722Z,87.74
2022-12-25T06:14:15.613Z,87.46
2022-12-25T06:14:52.643Z,87.10
2022-12-25T06:15:24.999Z,86.91
2022-12-25T06:15:57.290Z,87.40
2022-12-25T06:16:38.446Z,87.35
2022-12-25T06:17:10.525Z,86.86
2022-12-25T06:17:42.433Z,86.50
2022-12-25T06:18:14.383Z,85.96
2022-12-25T06:18:50.103Z,85.79
2022-12-25T06:19:22.579Z,85.62
2022-12-25T06:19:54.891Z,85.84
2022-12-25T06:20:26.840Z,86.43
2022-12-25T06:21:05.794Z,86.84
2022-12-25T06:22:03.404Z,86.78
2022-12-25T06:22:37.164Z,86.72
2022-12-25T06:23:33.488Z,86.79
2022-12-25T06:24:06.172Z,86.53
2022-12-25T06:24:42.132Z,86.48
2022-12-25T06:25:20.566Z,86.52
2022-12-25T06:25:55.664Z,85.95
2022-12-25T06:26:36.661Z,85.70
2022-12-25T06:27:14.581Z,85.27
2022-12-25T06:27:52.363Z,85.24
2022-12-25T06:28:24.847Z,85.24
2022-12-25T06:29:02.400Z,84.87
2022-12-25T06:29:34.794Z,84.60
2022-12-25T06:30:10.270Z,85.02
2022-12-25T06:30:44.821Z,85.37
2022-12-25T06:31:22.959Z,85.31
2022-12-25T06:31:59.135Z,84.80
2022-12-25T06:32:32.405Z,84.61
2022-12-25T06:33:04.736Z,84.73
2022-12-25T06:33:39.542Z,84.95
2022-12-25T06:34:16.794Z,85.06
2022-12-25T06:34:49.231Z,84.96
2022-12-25T06:35:24.025Z,84.85
2022-12-25T06:36:06.855Z,84.99
2022-12-25T06:36:41.816Z,85.01
2022-12-25T06:37:25.259Z,85.63
2022-12-25T06:37:57.970Z,86.09
2022-12-25T06:38:29.800Z,86.29
2022-12-25T06:39:02.118Z,86.06
2022-12-25T06:39:33.988Z,86.40
2022-12-25T06:40:06.593Z,86.61
2022-12-25T06:40:38.470Z,86.69
2022-12-25T06:41:15.083Z,86.81
2022-12-25T06:41:47.768Z,86.67
2022-12-25T06:42:19.649Z,86.46
2022-12-25T06:42:52.259Z,86.64
2022-12-25T06:43:24.397Z,86.44
2022-12-25T06:43:58.415Z,86.41
2022-12-25T06:44:30.358Z,86.59
2022-12-25T06:45:02.356Z,86.94
2022-12-25T06:45:36.167Z,87.35
2022-12-25T06:46:11.756Z,87.12
2022-12-25T06:46:43.939Z,87.31
2022-12-25T06:47:15.819Z,87.56
2022-12-25T06:47:47.676Z,87.33
2022-12-25T06:48:19.572Z,87.40
2022-12-25T06:48:52.312Z,87.57
2022-12-25T06:49:27.327Z,87.16
2022-12-25T06:49:59.285Z,86.90
2022-12-25T06:50:31.137Z,86.77
2022-12-25T06:51:04.311Z,86.59
2022-12-25T06:51:36.254Z,86.45
2022-12-25T06:52:08.108Z,86.18
2022-12-25T06:52:39.949Z,85.86
2022-12-25T06:53:11.888Z,86.22
2022-12-25T06:53:43.906Z,86.68
2022-12-25T06:54:16.080Z,86.75
2022-12-25T06:54:47.943Z,86.52
2022-12-25T06:55:19.802Z,86.05
2022-12-25T06:55:51.682Z,85.46
2022-12-25T06:56:26.921Z,85.53
2022-12-25T06:56:58.786Z,85.81
2022-12-25T06:57:30.638Z,85.57
2022-12-25T06:58:02.499Z,85.12
2022-12-25T06:58:34.328Z,84.86
2022-12-25T06:59:09.742Z,84.90
2022-12-25T06:59:41.863Z,84.69
2022-12-25T07:00:14.524Z,84.40
2022-12-25T07:00:46.640Z,84.10
2022-12-25T07:01:30.669Z,84.63
2022-12-25T07:02:03.157Z,84.92
2022-12-25T07:02:35.497Z,85.61
2022-12-25T07:03:07.619Z,85.38
2022-12-25T07:03:39.537Z,84.94
2022-12-25T07:04:18.798Z,84.61
2022-12-25T07:04:52.092Z,84.61
2022-12-25T07:05:23.927Z,84.50
2022-12-25T07:05:55.788Z,84.22
2022-12-25T07:06:27.902Z,84.84
2022-12-25T07:07:06.174Z,85.37
2022-12-25T07:07:40.379Z,85.63
2022-12-25T07:08:12.254Z,85.55
2022-12-25T07:08:44.257Z,84.83
2022-12-25T07:09:16.255Z,84.50
2022-12-25T07:09:48.109Z,84.85
2022-12-25T07:10:20.238Z,85.14
2022-12-25T07:10:52.063Z,85.70
2022-12-25T07:11:23.991Z,86.67
2022-12-25T07:12:15.189Z,87.41
2022-12-25T07:12:46.876Z,87.03
2022-12-25T07:13:18.713Z,86.71
2022-12-25T07:13:50.575Z,86.28
2022-12-25T07:14:24.611Z,85.86
2022-12-25T07:14:56.895Z,85.68
2022-12-25T07:15:29.037Z,85.40
2022-12-25T07:16:03.484Z,85.42
2022-12-25T07:16:35.495Z,85.62
2022-12-25T07:17:07.518Z,85.58
2022-12-25T07:17:39.401Z,85.26
2022-12-25T07:18:11.237Z,85.01
2022-12-25T07:18:43.148Z,84.74
2022-12-25T07:19:15.818Z,84.73
2022-12-25T07:19:47.866Z,84.58
2022-12-25T07:20:19.944Z,84.58
2022-12-25T07:20:52.217Z,84.90
2022-12-25T07:21:24.094Z,85.28
2022-12-25T07:21:56.316Z,85.62
2022-12-25T07:22:30.106Z,85.77
2022-12-25T07:23:01.945Z,86.34
2022-12-25T07:23:34.139Z,86.62
2022-12-25T07:24:06.452Z,87.19
2022-12-25T07:24:38.322Z,87.24
2022-12-25T07:25:10.215Z,86.66
2022-12-25T07:25:42.171Z,86.17
2022-12-25T07:26:15.475Z,85.83
2022-12-25T07:26:47.928Z,85.84
2022-12-25T07:27:19.837Z,85.81
2022-12-25T07:27:51.705Z,85.53
2022-12-25T07:28:23.632Z,85.32
2022-12-25T07:28:55.915Z,85.64
2022-12-25T07:29:27.746Z,85.79
2022-12-25T07:29:59.609Z,86.18
2022-12-25T07:30:31.447Z,87.60
2022-12-25T07:31:09.608Z,87.81
2022-12-25T07:31:41.813Z,87.79
2022-12-25T07:32:13.877Z,88.18
2022-12-25T07:32:50.094Z,88.18
2022-12-25T07:33:22.247Z,87.72
2022-12-25T07:33:55.001Z,86.73
2022-12-25T07:34:26.859Z,86.52
2022-12-25T07:34:58.971Z,86.17
2022-12-25T07:35:31.097Z,85.57
2022-12-25T07:36:05.664Z,84.98
2022-12-25T07:36:37.655Z,84.24
2022-12-25T07:37:09.915Z,84.33
2022-12-25T07:37:41.953Z,84.49
2022-12-25T07:38:13.782Z,83.59
2022-12-25T07:38:49.003Z,83.43
2022-12-25T07:39:20.869Z,82.07
2022-12-25T07:39:52.731Z,79.67
2022-12-25T07:40:24.565Z,78.28
2022-12-25T07:40:56.402Z,76.76
2022-12-25T07:41:28.243Z,76.11
2022-12-25T07:42:00.897Z,75.46
2022-12-25T07:42:33.195Z,74.74
2022-12-25T07:43:05.044Z,74.73
2022-12-25T07:43:37.242Z,74.81
2022-12-25T07:44:09.120Z,74.72
2022-12-25T07:44:40.972Z,74.67
2022-12-25T07:45:12.885Z,74.94
2022-12-25T07:45:44.850Z,75.07
2022-12-25T07:46:16.867Z,75.24
2022-12-25T07:46:48.779Z,75.42
2022-12-25T07:47:20.681Z,75.86
2022-12-25T07:47:55.054Z,76.06
2022-12-25T07:48:28.620Z,76.16
2022-12-25T07:49:00.778Z,76.77
2022-12-25T07:49:32.624Z,77.80
2022-12-25T07:50:04.998Z,78.60
2022-12-25T07:50:37.383Z,79.26
2022-12-25T07:51:12.427Z,79.53
2022-12-25T07:51:44.342Z,79.52
2022-12-25T07:52:16.195Z,79.41
2022-12-25T07:52:48.051Z,79.14
2022-12-25T07:53:20.193Z,79.02
2022-12-25T07:53:52.687Z,79.00
2022-12-25T07:54:24.707Z,79.15
2022-12-25T07:54:56.576Z,79.31
2022-12-25T07:55:28.464Z,79.36
2022-12-25T07:56:06.365Z,79.56
2022-12-25T07:56:38.241Z,88.41